Time;durP1;ratioP1;P1;durP2;ratioP2;P2;SDS_P1;SDS_P2;PMS_P1;PMS_P2;Temp;Humidity;BMP_temperature;BMP_pressure;BME280_temperature;BME280_humidity;BME280_pressure;Samples;Min_cycle;Max_cycle;Signal;HPM_P1;HPM_P2
2022/12/06 00:00:45;;;;;;;27.45;14.75;;;3.80;99.90;;;;;;5077618;28;20030;-61
2022/12/06 00:03:10;;;;;;;31.67;15.05;;;3.80;99.90;;;;;;5079820;28;20028;-58
2022/12/06 00:05:36;;;;;;;37.35;16.08;;;3.70;99.90;;;;;;5080226;28;20048;-59
2022/12/06 00:08:02;;;;;;;31.02;15.43;;;3.80;99.90;;;;;;5079991;28;20115;-59
2022/12/06 00:10:27;;;;;;;33.40;16.05;;;3.80;99.90;;;;;;5079112;28;20020;-59
2022/12/06 00:12:53;;;;;;;25.77;15.38;;;3.70;99.90;;;;;;5076285;28;20039;-59
2022/12/06 00:15:19;;;;;;;34.92;15.98;;;3.80;99.90;;;;;;5078772;28;20119;-59
2022/12/06 00:17:44;;;;;;;35.75;17.60;;;3.70;99.90;;;;;;5080292;28;20032;-59
2022/12/06 00:20:10;;;;;;;37.67;18.20;;;3.70;99.90;;;;;;5080162;28;20025;-60
2022/12/06 00:22:36;;;;;;;34.53;17.45;;;3.70;99.90;;;;;;5078929;28;20035;-58
2022/12/06 00:25:02;;;;;;;32.10;17.08;;;3.70;99.90;;;;;;5079029;28;20082;-58
2022/12/06 00:27:27;;;;;;;29.23;17.25;;;3.70;99.90;;;;;;5076487;28;20024;-58
2022/12/06 00:29:53;;;;;;;28.23;16.98;;;3.70;99.90;;;;;;5076053;28;20039;-59
2022/12/06 00:32:18;;;;;;;25.77;17.02;;;3.70;99.90;;;;;;5081829;28;20028;-58
2022/12/06 00:34:44;;;;;;;32.63;16.98;;;3.70;99.90;;;;;;5076860;28;20397;-59
2022/12/06 00:37:10;;;;;;;28.00;17.40;;;3.70;99.90;;;;;;5077227;28;20024;-58
2022/12/06 00:39:35;;;;;;;34.05;18.63;;;3.70;99.90;;;;;;5092318;27;20087;-60
2022/12/06 00:42:01;;;;;;;31.80;18.17;;;3.70;99.90;;;;;;5075450;28;20032;-59
2022/12/06 00:44:27;;;;;;;31.58;18.73;;;3.70;99.90;;;;;;5078388;28;20032;-59
2022/12/06 00:46:52;;;;;;;33.17;17.02;;;3.70;99.90;;;;;;5075665;28;20032;-58
2022/12/06 00:49:18;;;;;;;25.60;16.73;;;3.70;99.90;;;;;;5077567;28;20024;-57
2022/12/06 00:51:43;;;;;;;22.48;16.00;;;3.70;99.90;;;;;;5076637;28;20752;-59
2022/12/06 00:54:12;;;;;;;27.85;16.40;;;3.70;99.90;;;;;;5077020;28;20078;-59
2022/12/06 00:56:38;;;;;;;28.40;16.75;;;3.70;99.90;;;;;;5076378;28;20094;-57
2022/12/06 00:59:05;;;;;;;28.50;17.30;;;3.70;99.90;;;;;;5078336;28;20021;-58
2022/12/06 01:01:32;;;;;;;26.00;17.10;;;3.70;99.90;;;;;;5076142;28;20035;-57
2022/12/06 01:04:01;;;;;;;23.92;17.23;;;3.70;99.90;;;;;;5076498;28;20082;-59
2022/12/06 01:06:31;;;;;;;24.15;15.57;;;3.70;99.90;;;;;;5080929;28;20032;-58
2022/12/06 01:08:59;;;;;;;22.23;15.93;;;3.70;99.90;;;;;;5074262;28;20035;-59
2022/12/06 01:11:27;;;;;;;28.73;16.33;;;3.70;99.90;;;;;;5079822;28;20648;-60
2022/12/06 01:13:53;;;;;;;24.48;16.23;;;3.80;99.90;;;;;;5076735;28;20484;-59
2022/12/06 01:16:21;;;;;;;29.77;16.90;;;3.70;99.90;;;;;;5079708;28;20024;-60
2022/12/06 01:18:51;;;;;;;22.13;16.63;;;3.70;99.90;;;;;;5074875;28;20052;-60
2022/12/06 01:21:19;;;;;;;25.27;16.80;;;3.70;99.90;;;;;;5069067;28;20048;-59
2022/12/06 01:23:45;;;;;;;23.52;14.90;;;3.70;99.90;;;;;;5078478;28;20048;-58
2022/12/06 01:26:19;;;;;;;23.80;15.93;;;3.70;99.90;;;;;;5078217;28;20115;-58
2022/12/06 01:28:45;;;;;;;22.35;14.95;;;3.70;99.90;;;;;;5078186;28;20033;-58
2022/12/06 01:31:11;;;;;;;26.55;17.52;;;3.70;99.90;;;;;;5078360;28;20030;-58
2022/12/06 01:33:37;;;;;;;26.58;16.25;;;3.70;99.90;;;;;;5077363;28;20042;-58
2022/12/06 01:36:03;;;;;;;25.95;16.42;;;3.70;99.90;;;;;;5077106;28;20033;-59
2022/12/06 01:38:29;;;;;;;24.63;16.48;;;3.60;99.90;;;;;;5074992;28;20039;-58
2022/12/06 01:40:54;;;;;;;29.00;17.35;;;3.60;99.90;;;;;;5077975;28;20024;-58
2022/12/06 01:43:34;;;;;;;24.52;15.80;;;3.60;99.90;;;;;;5077657;28;20024;-57
2022/12/06 01:46:09;;;;;;;22.95;15.90;;;3.60;99.90;;;;;;5074901;28;20036;-57
2022/12/06 01:48:36;;;;;;;25.30;15.48;;;3.60;99.90;;;;;;5076293;28;20021;-58
2022/12/06 01:51:04;;;;;;;25.08;14.80;;;3.60;99.90;;;;;;5075633;28;20097;-58
2022/12/06 01:53:31;;;;;;;21.75;14.43;;;3.50;99.90;;;;;;5076319;28;20035;-58
2022/12/06 01:55:57;;;;;;;21.05;14.82;;;3.50;99.90;;;;;;5077105;28;20421;-57
2022/12/06 01:58:27;;;;;;;26.10;15.82;;;3.50;99.90;;;;;;5074801;28;20031;-58
2022/12/06 02:00:53;;;;;;;22.75;15.88;;;3.50;99.90;;;;;;5078534;28;20025;-57
2022/12/06 02:03:22;;;;;;;22.00;15.30;;;3.50;99.90;;;;;;5073096;28;20032;-57
2022/12/06 02:05:48;;;;;;;19.85;15.25;;;3.50;99.90;;;;;;5078300;28;20044;-59
2022/12/06 02:08:15;;;;;;;23.75;16.73;;;3.50;99.90;;;;;;5077969;28;20078;-57
2022/12/06 02:10:41;;;;;;;19.58;14.60;;;3.60;99.90;;;;;;5080181;28;20060;-60
2022/12/06 02:13:07;;;;;;;20.10;14.57;;;3.60;99.90;;;;;;5084749;28;20059;-59
2022/12/06 02:16:11;;;;;;;21.27;14.85;;;3.60;99.90;;;;;;5080377;28;20040;-57
2022/12/06 02:18:44;;;;;;;16.23;13.27;;;3.50;99.90;;;;;;5055788;28;20024;-57
2022/12/06 02:21:34;;;;;;;21.67;13.35;;;3.50;99.90;;;;;;5081113;28;20036;-58
2022/12/06 02:24:29;;;;;;;28.50;13.48;;;3.60;99.90;;;;;;5079155;28;20045;-58
2022/12/06 02:27:24;;;;;;;17.15;12.23;;;3.50;99.90;;;;;;5078696;28;20298;-58
2022/12/06 02:30:09;;;;;;;14.48;12.48;;;3.50;99.90;;;;;;5082636;28;20032;-58
2022/12/06 02:32:44;;;;;;;13.68;11.57;;;3.50;99.90;;;;;;5079197;28;20107;-58
2022/12/06 02:35:29;;;;;;;13.85;11.85;;;3.50;99.90;;;;;;5079327;28;20392;-58
2022/12/06 02:38:15;;;;;;;13.48;11.38;;;3.50;99.90;;;;;;5083362;28;20032;-59
2022/12/06 02:40:53;;;;;;;14.25;12.25;;;3.50;99.90;;;;;;5082952;28;20020;-57
2022/12/06 02:43:24;;;;;;;14.57;12.20;;;3.50;99.90;;;;;;5082731;28;20228;-59
2022/12/06 02:45:54;;;;;;;16.70;12.52;;;3.50;99.90;;;;;;5082844;28;20078;-58
2022/12/06 02:48:22;;;;;;;15.18;12.25;;;3.50;99.90;;;;;;5079366;28;20032;-59
2022/12/06 02:50:56;;;;;;;14.98;11.63;;;3.50;99.90;;;;;;5079695;28;20766;-59
2022/12/06 02:53:24;;;;;;;16.13;12.02;;;3.50;99.90;;;;;;5077452;28;20032;-57
2022/12/06 02:55:51;;;;;;;14.70;12.40;;;3.50;99.90;;;;;;5081567;28;20093;-57
2022/12/06 02:58:17;;;;;;;16.50;12.68;;;3.50;99.90;;;;;;5083354;28;20035;-57
2022/12/06 03:00:44;;;;;;;15.70;12.68;;;3.50;99.90;;;;;;5079928;28;20036;-58
2022/12/06 03:03:36;;;;;;;17.33;12.95;;;3.50;99.90;;;;;;5079903;28;20026;-58
2022/12/06 03:06:02;;;;;;;18.23;13.40;;;3.50;99.90;;;;;;5076839;28;20028;-57
2022/12/06 03:08:31;;;;;;;14.75;11.98;;;3.50;99.90;;;;;;5080447;28;20031;-59
2022/12/06 03:11:01;;;;;;;14.18;11.77;;;3.50;99.90;;;;;;5076179;28;20028;-57
2022/12/06 03:14:14;;;;;;;14.43;11.68;;;3.50;99.90;;;;;;5078419;28;20028;-57
2022/12/06 03:17:08;;;;;;;13.40;11.70;;;3.50;99.90;;;;;;5019286;28;20022;-58
2022/12/06 03:19:35;;;;;;;17.58;11.75;;;3.50;99.90;;;;;;5017762;28;20025;-59
2022/12/06 03:22:27;;;;;;;13.55;11.32;;;3.50;99.90;;;;;;5062050;28;20071;-58
2022/12/06 03:24:54;;;;;;;14.82;12.20;;;3.50;99.90;;;;;;5077828;28;20579;-58
2022/12/06 03:27:21;;;;;;;13.98;12.23;;;3.50;99.90;;;;;;5075835;28;20040;-59
2022/12/06 03:29:52;;;;;;;15.25;12.60;;;3.50;99.90;;;;;;5077405;28;20044;-58
2022/12/06 03:32:22;;;;;;;16.70;12.70;;;3.50;99.90;;;;;;5080999;28;20055;-58
2022/12/06 03:34:51;;;;;;;18.58;12.60;;;3.50;99.90;;;;;;5081037;28;20041;-58
2022/12/06 03:37:21;;;;;;;16.20;12.55;;;3.50;99.90;;;;;;5079729;28;20074;-60
2022/12/06 03:40:08;;;;;;;12.23;10.90;;;3.50;99.90;;;;;;5077736;28;20043;-57
2022/12/06 03:42:34;;;;;;;15.45;12.50;;;3.50;99.90;;;;;;5076906;28;20504;-58
2022/12/06 03:45:00;;;;;;;15.00;11.48;;;3.50;99.90;;;;;;5079568;28;20404;-57
2022/12/06 03:47:36;;;;;;;12.95;11.60;;;3.50;99.90;;;;;;5080411;28;20032;-57
2022/12/06 03:50:08;;;;;;;14.02;11.90;;;3.50;99.90;;;;;;5077881;28;20159;-58
2022/12/06 03:52:34;;;;;;;15.23;11.48;;;3.50;99.90;;;;;;5076463;28;20028;-57
2022/12/06 03:55:00;;;;;;;16.88;12.07;;;3.50;99.90;;;;;;5079204;28;20056;-59
2022/12/06 03:57:26;;;;;;;14.85;11.65;;;3.60;99.90;;;;;;5083597;28;20047;-58
2022/12/06 03:59:52;;;;;;;14.80;12.88;;;3.60;99.90;;;;;;5077420;28;20036;-58
2022/12/06 04:02:17;;;;;;;13.80;11.52;;;3.50;99.90;;;;;;5078762;28;20039;-58
2022/12/06 04:04:43;;;;;;;13.63;11.90;;;3.60;99.90;;;;;;5077949;28;20397;-58
2022/12/06 04:07:10;;;;;;;14.73;11.57;;;3.60;99.90;;;;;;5081316;28;20103;-58
2022/12/06 04:15:05;;;;;;;15.40;13.02;;;3.50;99.90;;;;;;5077371;28;20396;-57
2022/12/06 04:20:15;;;;;;;12.75;11.45;;;3.50;99.90;;;;;;5079675;28;20842;-58
2022/12/06 04:25:25;;;;;;;13.77;12.25;;;3.50;99.90;;;;;;5078793;28;20488;-57
2022/12/06 04:38:48;;;;;;;14.82;12.13;;;3.60;99.90;;;;;;5078412;28;20893;-58
2022/12/06 04:43:40;;;;;;;17.63;12.77;;;3.50;99.90;;;;;;5074392;28;20024;-58
2022/12/06 04:44:00;;;;;;;14.30;12.10;;;3.50;99.90;;;;;;5073956;28;20036;-57
2022/12/06 04:46:25;;;;;;;16.25;12.90;;;3.50;99.90;;;;;;5077521;28;20438;-58
2022/12/06 04:48:51;;;;;;;14.73;12.55;;;3.60;99.90;;;;;;5080896;28;20043;-57
2022/12/06 04:51:17;;;;;;;15.90;12.55;;;3.50;99.90;;;;;;5075268;28;20505;-57
2022/12/06 04:53:42;;;;;;;18.20;13.88;;;3.50;99.90;;;;;;5075793;28;20032;-57
2022/12/06 04:56:08;;;;;;;14.45;12.55;;;3.50;99.90;;;;;;5083516;28;20552;-58
2022/12/06 04:58:34;;;;;;;16.23;12.30;;;3.50;99.90;;;;;;5076863;28;20028;-58
2022/12/06 05:00:59;;;;;;;17.30;13.65;;;3.50;99.90;;;;;;5077985;28;20021;-57
2022/12/06 05:03:25;;;;;;;18.60;13.05;;;3.50;99.90;;;;;;5075559;28;20469;-57
2022/12/06 05:05:51;;;;;;;17.27;12.15;;;3.50;99.90;;;;;;5075832;28;20547;-57
2022/12/06 05:08:17;;;;;;;15.18;12.20;;;3.50;99.90;;;;;;5077740;28;20503;-58
2022/12/06 05:10:46;;;;;;;14.77;11.82;;;3.50;99.90;;;;;;5078065;28;20698;-58
2022/12/06 05:13:12;;;;;;;14.52;12.20;;;3.50;99.90;;;;;;5078101;28;20436;-57
2022/12/06 05:15:38;;;;;;;14.73;12.10;;;3.50;99.90;;;;;;5077761;28;20033;-56
2022/12/06 05:18:03;;;;;;;13.00;11.05;;;3.50;99.90;;;;;;5075962;28;20036;-58
2022/12/06 05:20:29;;;;;;;15.77;12.25;;;3.50;99.90;;;;;;5077025;28;20024;-57
2022/12/06 05:22:55;;;;;;;15.98;12.35;;;3.40;99.90;;;;;;5076192;28;20052;-58
2022/12/06 05:25:20;;;;;;;16.55;12.73;;;3.50;99.90;;;;;;5076572;28;20735;-59
2022/12/06 05:27:46;;;;;;;15.68;12.30;;;3.50;99.90;;;;;;5076264;28;20400;-59
2022/12/06 05:30:12;;;;;;;17.13;12.07;;;3.50;99.90;;;;;;5073391;28;20044;-57
2022/12/06 05:32:39;;;;;;;17.13;12.57;;;3.40;99.90;;;;;;5074310;28;20066;-57
2022/12/06 05:35:05;;;;;;;15.60;12.80;;;3.40;99.90;;;;;;5080966;28;20119;-58
2022/12/06 05:37:31;;;;;;;19.70;13.18;;;3.50;99.90;;;;;;5079526;28;20043;-58
2022/12/06 05:39:57;;;;;;;14.23;12.27;;;3.50;99.90;;;;;;5075818;28;20036;-57
2022/12/06 05:42:22;;;;;;;14.95;12.07;;;3.50;99.90;;;;;;5075131;28;20476;-59
2022/12/06 05:44:48;;;;;;;14.23;11.88;;;3.50;99.90;;;;;;5072521;28;20505;-58
2022/12/06 05:47:13;;;;;;;12.45;11.00;;;3.50;99.90;;;;;;5073717;28;20052;-57
2022/12/06 05:49:39;;;;;;;15.20;11.95;;;3.50;99.90;;;;;;5076333;28;20081;-58
2022/12/06 05:52:05;;;;;;;21.45;13.57;;;3.50;99.90;;;;;;5077784;28;20515;-57
2022/12/06 05:54:30;;;;;;;15.30;12.45;;;3.50;99.90;;;;;;5076681;28;20515;-57
2022/12/06 05:56:56;;;;;;;16.58;12.60;;;3.60;99.90;;;;;;5073654;28;20033;-57
2022/12/06 05:59:21;;;;;;;20.98;13.00;;;3.60;99.90;;;;;;5075043;28;20454;-58
2022/12/06 06:01:47;;;;;;;13.93;11.70;;;3.60;99.90;;;;;;5074772;28;20040;-58
2022/12/06 06:04:12;;;;;;;12.90;11.60;;;3.60;99.90;;;;;;5075033;28;20028;-58
2022/12/06 06:06:38;;;;;;;12.65;11.25;;;3.60;99.90;;;;;;5080152;28;20032;-57
2022/12/06 06:09:04;;;;;;;11.88;10.63;;;3.60;99.90;;;;;;5075679;28;20024;-58
2022/12/06 06:11:29;;;;;;;14.38;11.65;;;3.60;99.90;;;;;;5072766;28;20036;-59
2022/12/06 06:13:55;;;;;;;11.63;10.30;;;3.60;99.90;;;;;;5071506;28;20427;-57
2022/12/06 06:16:21;;;;;;;11.73;10.52;;;3.60;99.90;;;;;;5078583;28;20050;-58
2022/12/06 06:18:47;;;;;;;11.98;10.77;;;3.70;99.90;;;;;;5076844;28;20824;-57
2022/12/06 06:21:13;;;;;;;12.38;11.07;;;3.70;99.90;;;;;;5075485;28;20074;-58
2022/12/06 06:23:39;;;;;;;12.00;10.75;;;3.60;99.90;;;;;;5074127;28;20513;-58
2022/12/06 06:26:09;;;;;;;13.73;11.93;;;3.60;99.90;;;;;;5076340;28;20178;-60
2022/12/06 06:28:35;;;;;;;14.05;11.45;;;3.60;99.90;;;;;;5080338;28;20028;-58
2022/12/06 06:31:04;;;;;;;12.45;11.10;;;3.60;99.90;;;;;;5078023;28;20031;-58
2022/12/06 06:33:31;;;;;;;14.57;11.35;;;3.60;99.90;;;;;;5076950;28;20512;-58
2022/12/06 06:35:56;;;;;;;14.23;11.50;;;3.60;99.90;;;;;;5076133;28;20107;-58
2022/12/06 06:38:22;;;;;;;13.73;12.25;;;3.60;99.90;;;;;;5071583;28;20135;-58
2022/12/06 06:40:47;;;;;;;12.88;10.95;;;3.60;99.90;;;;;;5072662;28;20028;-58
2022/12/06 06:43:19;;;;;;;14.48;12.35;;;3.70;99.90;;;;;;5077324;28;20923;-57
2022/12/06 06:45:54;;;;;;;15.30;12.23;;;3.70;99.90;;;;;;5070939;28;20044;-60
2022/12/06 06:48:21;;;;;;;14.80;11.88;;;3.70;99.90;;;;;;5077425;28;20024;-57
2022/12/06 06:50:46;;;;;;;14.15;12.02;;;3.60;99.90;;;;;;5081225;28;20060;-57
2022/12/06 06:53:12;;;;;;;24.20;13.15;;;3.70;99.90;;;;;;5082415;28;20036;-58
2022/12/06 06:55:38;;;;;;;16.92;13.05;;;3.70;99.90;;;;;;5075555;28;20390;-56
2022/12/06 06:58:04;;;;;;;16.45;12.10;;;3.60;99.90;;;;;;5078933;28;20032;-58
2022/12/06 07:00:31;;;;;;;22.67;14.73;;;3.60;99.90;;;;;;5077878;28;20029;-56
2022/12/06 07:02:57;;;;;;;20.33;13.48;;;3.60;99.90;;;;;;5081717;28;20024;-58
2022/12/06 07:05:22;;;;;;;19.33;14.00;;;3.60;99.90;;;;;;5079649;28;20532;-58
2022/12/06 07:07:48;;;;;;;18.08;13.95;;;3.60;99.90;;;;;;5079486;28;20108;-57
2022/12/06 07:10:15;;;;;;;17.90;12.27;;;3.60;99.90;;;;;;5076905;28;20027;-58
2022/12/06 07:12:40;;;;;;;18.05;11.82;;;3.60;99.90;;;;;;5084013;28;20039;-58
2022/12/06 07:15:06;;;;;;;16.60;12.70;;;3.60;99.90;;;;;;5072827;28;20055;-59
2022/12/06 07:17:32;;;;;;;16.85;11.82;;;3.60;99.90;;;;;;5079534;28;20115;-58
2022/12/06 07:19:58;;;;;;;21.20;13.18;;;3.60;99.90;;;;;;5078147;28;20444;-57
2022/12/06 07:22:23;;;;;;;21.80;14.00;;;3.60;99.90;;;;;;5078780;28;20028;-59
2022/12/06 07:24:49;;;;;;;17.98;13.25;;;3.60;99.90;;;;;;5084494;28;20065;-58
2022/12/06 07:27:14;;;;;;;16.90;13.00;;;3.60;99.90;;;;;;5081384;28;20039;-57
2022/12/06 07:29:40;;;;;;;19.80;13.52;;;3.60;99.90;;;;;;5075767;28;20520;-57
2022/12/06 07:32:06;;;;;;;16.58;12.23;;;3.60;99.90;;;;;;5077995;28;20082;-59
2022/12/06 07:34:32;;;;;;;17.83;13.00;;;3.60;99.90;;;;;;5076604;28;20028;-57
2022/12/06 07:36:58;;;;;;;19.55;12.23;;;3.60;99.90;;;;;;5074902;28;20008;-58
2022/12/06 07:39:23;;;;;;;19.33;13.43;;;3.60;99.90;;;;;;5078070;28;20035;-57
2022/12/06 07:47:17;;;;;;;20.88;13.32;;;3.60;99.90;;;;;;5078859;28;20067;-57
2022/12/06 07:49:43;;;;;;;20.52;14.57;;;3.70;99.90;;;;;;5078216;28;20049;-58
2022/12/06 07:52:09;;;;;;;21.42;13.77;;;3.70;99.90;;;;;;5078035;28;20047;-58
2022/12/06 07:54:34;;;;;;;21.45;13.85;;;3.70;99.90;;;;;;5080992;28;20035;-57
2022/12/06 07:57:00;;;;;;;20.38;14.00;;;3.70;99.90;;;;;;5079635;28;20052;-57
2022/12/06 07:59:26;;;;;;;18.10;13.27;;;3.70;99.90;;;;;;5080569;28;20373;-58
2022/12/06 08:01:52;;;;;;;17.88;12.55;;;3.70;99.90;;;;;;5077460;28;20039;-59
2022/12/06 08:04:18;;;;;;;14.27;12.45;;;3.70;99.90;;;;;;5081412;28;20032;-58
2022/12/06 08:06:44;;;;;;;13.73;11.15;;;3.70;99.90;;;;;;5082320;28;20101;-58
2022/12/06 08:09:10;;;;;;;13.25;11.75;;;3.80;99.90;;;;;;5077791;28;20036;-58
2022/12/06 08:11:36;;;;;;;11.55;10.35;;;3.80;99.90;;;;;;5080050;28;20111;-59
2022/12/06 08:14:03;;;;;;;13.65;11.00;;;3.80;99.90;;;;;;5079539;28;20544;-57
2022/12/06 08:16:29;;;;;;;10.95;9.95;;;3.80;99.90;;;;;;5080367;28;20582;-58
2022/12/06 08:18:55;;;;;;;11.38;10.25;;;3.80;99.90;;;;;;5079207;28;20032;-58
2022/12/06 08:21:21;;;;;;;10.50;9.40;;;3.80;99.90;;;;;;5080527;28;20032;-58
2022/12/06 08:23:47;;;;;;;9.80;8.90;;;3.80;99.90;;;;;;5076274;28;20036;-59
2022/12/06 08:26:15;;;;;;;11.05;9.93;;;3.80;99.90;;;;;;5076123;28;20043;-59
2022/12/06 08:28:42;;;;;;;12.35;9.27;;;3.80;99.90;;;;;;5077389;28;20012;-59
2022/12/06 08:31:19;;;;;;;11.18;9.48;;;3.80;99.90;;;;;;5079639;28;20036;-57
2022/12/06 08:33:45;;;;;;;8.07;7.28;;;3.80;99.90;;;;;;5078652;28;20511;-59
2022/12/06 08:36:16;;;;;;;9.57;8.20;;;3.80;99.90;;;;;;5075971;28;20063;-56
2022/12/06 08:38:41;;;;;;;9.15;8.25;;;3.80;99.90;;;;;;5077457;28;20740;-58
2022/12/06 08:41:54;;;;;;;11.00;8.25;;;3.80;99.90;;;;;;5076276;28;20037;-59
2022/12/06 08:43:55;;;;;;;8.98;8.05;;;3.80;99.90;;;;;;5078222;28;20037;-56
2022/12/06 08:46:21;;;;;;;10.00;7.80;;;3.80;99.90;;;;;;5079807;28;20143;-58
2022/12/06 08:48:46;;;;;;;9.82;8.68;;;3.80;99.90;;;;;;5077489;28;20029;-58
2022/12/06 08:51:12;;;;;;;10.32;8.55;;;3.80;99.90;;;;;;5075493;28;20491;-57
2022/12/06 08:53:38;;;;;;;8.75;7.85;;;3.80;99.90;;;;;;5077086;28;20094;-57
2022/12/06 08:56:04;;;;;;;9.50;8.20;;;3.90;99.90;;;;;;5078391;28;20085;-57
2022/12/06 08:58:30;;;;;;;11.68;8.63;;;3.90;99.90;;;;;;5075517;28;20016;-58
2022/12/06 09:00:55;;;;;;;9.50;8.50;;;3.80;99.90;;;;;;5079586;28;20026;-57
2022/12/06 09:03:21;;;;;;;10.95;8.65;;;3.80;99.90;;;;;;5079112;28;20032;-57
2022/12/06 09:05:46;;;;;;;9.07;8.18;;;3.80;99.90;;;;;;5075243;28;20404;-58
2022/12/06 09:08:12;;;;;;;11.73;9.40;;;3.80;99.90;;;;;;5078152;28;20029;-58
2022/12/06 09:10:38;;;;;;;9.95;9.05;;;3.80;99.90;;;;;;5077969;28;20025;-59
2022/12/06 09:13:03;;;;;;;11.05;9.82;;;3.90;99.90;;;;;;5075063;28;20013;-58
2022/12/06 09:15:29;;;;;;;10.90;8.95;;;3.90;99.90;;;;;;5075480;28;20035;-59
2022/12/06 09:17:55;;;;;;;11.93;8.35;;;3.90;99.90;;;;;;5075812;28;20649;-57
2022/12/06 09:20:20;;;;;;;9.73;8.73;;;3.90;99.90;;;;;;5077994;28;20028;-57
2022/12/06 09:22:46;;;;;;;12.02;8.77;;;3.90;99.90;;;;;;5076450;28;20037;-58
2022/12/06 09:25:11;;;;;;;9.98;8.85;;;3.90;99.90;;;;;;5077952;28;20020;-57
2022/12/06 09:27:38;;;;;;;13.73;8.60;;;3.90;99.90;;;;;;5074688;28;20036;-58
2022/12/06 09:30:04;;;;;;;8.70;7.90;;;3.90;99.90;;;;;;5075702;28;20059;-57
2022/12/06 09:32:30;;;;;;;9.10;8.20;;;3.90;99.90;;;;;;5075011;28;20032;-58
2022/12/06 09:34:55;;;;;;;8.20;7.15;;;3.90;99.90;;;;;;5076161;28;20082;-58
2022/12/06 09:37:21;;;;;;;9.38;7.25;;;3.90;99.90;;;;;;5079869;28;20393;-58
2022/12/06 09:39:57;;;;;;;6.82;5.07;;;3.90;99.90;;;;;;5076088;28;20040;-58
2022/12/06 09:43:02;;;;;;;5.88;5.28;;;3.90;99.90;;;;;;5072057;28;20025;-59
2022/12/06 09:46:01;;;;;;;6.78;4.90;;;3.80;99.90;;;;;;5081602;28;20028;-58
2022/12/06 09:48:45;;;;;;;5.25;4.50;;;3.80;99.90;;;;;;5071862;28;20029;-57
2022/12/06 09:51:23;;;;;;;4.32;3.33;;;3.80;99.90;;;;;;5077555;28;20028;-60
2022/12/06 09:54:10;;;;;;;5.30;3.65;;;3.80;99.90;;;;;;5077294;28;20155;-59
2022/12/06 09:56:45;;;;;;;3.58;3.13;;;3.80;99.90;;;;;;5079611;28;20047;-58
2022/12/06 09:59:29;;;;;;;4.03;3.10;;;3.80;99.90;;;;;;5078370;28;20043;-58
2022/12/06 10:02:27;;;;;;;3.92;3.53;;;3.80;99.90;;;;;;5075278;28;20116;-59
2022/12/06 10:05:08;;;;;;;4.20;2.90;;;3.80;99.90;;;;;;5056489;28;20035;-58
2022/12/06 10:07:55;;;;;;;2.78;2.33;;;3.80;99.90;;;;;;5077186;28;20456;-58
2022/12/06 10:10:34;;;;;;;3.45;2.50;;;3.80;99.90;;;;;;5074208;28;20060;-58
2022/12/06 10:13:25;;;;;;;2.53;2.30;;;3.80;99.90;;;;;;5074941;28;20047;-58
2022/12/06 10:15:59;;;;;;;;;;;3.80;99.90;;;;;;5078388;28;20461;-58
2022/12/06 10:18:25;;;;;;;3.17;2.78;;;3.80;99.90;;;;;;5074848;28;19908;-59
2022/12/06 10:21:09;;;;;;;3.55;3.25;;;3.80;99.90;;;;;;5074257;28;20036;-58
2022/12/06 10:24:02;;;;;;;4.55;4.15;;;3.80;99.90;;;;;;5077546;28;20033;-59
2022/12/06 10:26:51;;;;;;;4.43;4.03;;;3.90;99.90;;;;;;5071530;28;20028;-59
2022/12/06 10:29:53;;;;;;;5.70;4.03;;;3.80;99.90;;;;;;5081200;28;20032;-57
2022/12/06 10:32:27;;;;;;;7.53;6.82;;;3.80;99.90;;;;;;5078939;28;20031;-57
2022/12/06 10:34:57;;;;;;;30.80;28.02;;;3.80;99.90;;;;;;5081492;28;20040;-58
2022/12/06 10:37:34;;;;;;;11.15;10.27;;;3.80;99.90;;;;;;5080644;28;20533;-59
2022/12/06 10:40:09;;;;;;;13.70;12.50;;;3.80;99.90;;;;;;5080878;28;20581;-59
2022/12/06 10:42:40;;;;;;;6.63;6.13;;;3.80;99.90;;;;;;5080134;28;20028;-58
2022/12/06 10:48:56;;;;;;;12.50;11.60;;;3.70;99.90;;;;;;5080517;28;20515;-59
2022/12/06 10:51:33;;;;;;;11.40;10.60;;;3.70;99.90;;;;;;5079965;28;20290;-58
2022/12/06 10:54:10;;;;;;;3.83;3.50;;;3.60;99.90;;;;;;5077813;28;20036;-59
2022/12/06 10:56:40;;;;;;;4.25;3.33;;;3.60;99.90;;;;;;5074824;28;20042;-58
2022/12/06 10:59:27;;;;;;;6.22;4.60;;;3.60;99.90;;;;;;5083780;28;20123;-58
2022/12/06 11:01:58;;;;;;;3.40;3.10;;;3.60;99.90;;;;;;5079270;28;20052;-58
2022/12/06 11:04:27;;;;;;;;;;;3.60;99.90;;;;;;5080719;28;20020;-59
2022/12/06 11:06:59;;;;;;;5.50;5.00;;;3.60;99.90;;;;;;5082321;28;19958;-58
2022/12/06 11:09:41;;;;;;;4.30;3.90;;;3.50;99.90;;;;;;5082980;28;20798;-57
2022/12/06 11:12:42;;;;;;;4.70;4.30;;;3.50;99.90;;;;;;5079827;28;20035;-60
2022/12/06 11:15:35;;;;;;;3.80;3.45;;;3.50;99.90;;;;;;5026239;28;20037;-58
2022/12/06 11:18:17;;;;;;;4.25;3.85;;;3.50;99.90;;;;;;5079435;28;20107;-57
2022/12/06 11:21:04;;;;;;;3.67;3.35;;;3.50;99.90;;;;;;5077669;28;20020;-58
2022/12/06 11:23:55;;;;;;;3.13;2.83;;;3.50;99.90;;;;;;5085543;28;20119;-57
2022/12/06 11:26:35;;;;;;;4.50;2.63;;;3.50;99.90;;;;;;5079815;28;20448;-58
2022/12/06 11:29:04;;;;;;;2.92;2.67;;;3.50;99.90;;;;;;5077237;28;20086;-58
2022/12/06 11:31:37;;;;;;;4.07;3.28;;;3.40;99.90;;;;;;5076568;28;20060;-58
2022/12/06 11:34:04;;;;;;;3.30;3.00;;;3.40;99.90;;;;;;5081366;28;20033;-58
2022/12/06 11:36:31;;;;;;;4.70;3.42;;;3.30;99.90;;;;;;5077207;28;20040;-59
2022/12/06 11:38:58;;;;;;;4.60;4.18;;;3.30;99.90;;;;;;5079894;28;20035;-58
2022/12/06 11:41:28;;;;;;;4.45;4.05;;;3.30;99.90;;;;;;5084265;28;20673;-59
2022/12/06 11:43:54;;;;;;;4.05;3.45;;;3.30;99.90;;;;;;5081883;28;20044;-59
2022/12/06 11:46:21;;;;;;;4.05;3.65;;;3.30;99.90;;;;;;5078340;28;20020;-58
2022/12/06 11:48:47;;;;;;;3.90;3.50;;;3.30;99.90;;;;;;5080617;28;20036;-58
2022/12/06 11:51:18;;;;;;;3.65;3.30;;;3.30;99.90;;;;;;5080920;28;20029;-58
2022/12/06 11:53:50;;;;;;;3.75;3.38;;;3.30;99.90;;;;;;5079059;28;20016;-58
2022/12/06 11:56:23;;;;;;;4.30;3.92;;;3.30;99.90;;;;;;5080133;28;20103;-57
2022/12/06 11:59:19;;;;;;;5.40;4.05;;;3.30;99.90;;;;;;5080557;28;20028;-58
2022/12/06 12:01:47;;;;;;;4.82;4.25;;;3.30;99.90;;;;;;5077895;28;20032;-57
2022/12/06 12:04:38;;;;;;;4.40;4.00;;;3.30;99.90;;;;;;5079002;28;20016;-57
2022/12/06 12:07:17;;;;;;;4.13;3.72;;;3.30;99.90;;;;;;5076916;28;20083;-58
2022/12/06 12:10:01;;;;;;;4.13;3.72;;;3.30;99.90;;;;;;5075977;28;20381;-59
2022/12/06 12:15:29;;;;;;;4.88;4.43;;;3.30;99.90;;;;;;5079554;28;20463;-59
2022/12/06 12:17:57;;;;;;;4.68;4.00;;;3.40;99.90;;;;;;5074427;28;20020;-58
2022/12/06 12:20:30;;;;;;;3.72;3.42;;;3.30;99.90;;;;;;5076836;28;20452;-58
2022/12/06 12:22:56;;;;;;;4.13;3.72;;;3.30;99.90;;;;;;5072314;28;20044;-57
2022/12/06 12:25:24;;;;;;;3.63;3.33;;;3.30;99.90;;;;;;5079271;28;20028;-59
2022/12/06 12:28:20;;;;;;;4.13;3.72;;;3.20;99.90;;;;;;5081054;28;20070;-57
2022/12/06 12:31:17;;;;;;;4.00;3.60;;;3.20;99.90;;;;;;5081724;28;20033;-58
2022/12/06 12:33:43;;;;;;;3.95;3.65;;;3.20;99.90;;;;;;5073054;28;20119;-58
2022/12/06 12:36:29;;;;;;;4.07;3.67;;;3.20;99.90;;;;;;5073174;28;20123;-60
2022/12/06 12:39:02;;;;;;;4.72;4.32;;;3.20;99.90;;;;;;5076261;28;20032;-59
2022/12/06 12:41:37;;;;;;;3.33;3.03;;;3.20;99.90;;;;;;5075739;28;20395;-57
2022/12/06 12:44:12;;;;;;;4.25;3.85;;;3.20;99.90;;;;;;5080130;28;20067;-58
2022/12/06 12:46:43;;;;;;;5.03;4.53;;;3.20;99.90;;;;;;5079170;28;20020;-60
2022/12/06 12:49:43;;;;;;;5.13;4.57;;;3.20;99.90;;;;;;5078446;28;20024;-58
2022/12/06 12:52:27;;;;;;;5.10;4.60;;;3.20;99.90;;;;;;5051098;28;20043;-58
2022/12/06 12:55:14;;;;;;;5.03;4.53;;;3.20;99.90;;;;;;5076425;28;20046;-58
2022/12/06 12:57:44;;;;;;;7.60;5.75;;;3.20;99.90;;;;;;5072746;28;20031;-57
2022/12/06 13:00:24;;;;;;;5.17;4.67;;;3.20;99.90;;;;;;5079217;28;20032;-57
2022/12/06 13:02:55;;;;;;;6.38;5.88;;;3.20;99.90;;;;;;5077916;28;20504;-58
2022/12/06 13:05:27;;;;;;;4.47;4.07;;;3.20;99.90;;;;;;5075740;28;20028;-59
2022/12/06 13:07:58;;;;;;;4.82;3.40;;;3.10;99.90;;;;;;5078371;28;20381;-58
2022/12/06 13:10:34;;;;;;;3.70;3.30;;;3.10;99.90;;;;;;5075709;28;20028;-58
2022/12/06 13:13:11;;;;;;;3.92;3.53;;;3.10;99.90;;;;;;5077883;28;20107;-58
2022/12/06 13:15:46;;;;;;;6.07;3.63;;;3.10;99.90;;;;;;5075633;28;20036;-57
2022/12/06 13:18:41;;;;;;;4.57;4.18;;;3.10;99.90;;;;;;5079538;28;20028;-57
2022/12/06 13:21:12;;;;;;;4.25;3.85;;;3.10;99.90;;;;;;5069369;28;20040;-58
2022/12/06 13:23:40;;;;;;;4.25;3.85;;;3.00;99.90;;;;;;5077974;28;20595;-56
2022/12/06 13:26:17;;;;;;;4.53;4.13;;;3.00;99.90;;;;;;5074094;28;20045;-58
2022/12/06 13:28:49;;;;;;;5.00;4.32;;;3.00;99.90;;;;;;5078581;28;20463;-58
2022/12/06 13:31:32;;;;;;;4.57;4.18;;;3.00;99.90;;;;;;5078559;28;20017;-58
2022/12/06 13:34:10;;;;;;;4.57;4.18;;;3.00;99.90;;;;;;5080118;28;20048;-58
2022/12/06 13:36:36;;;;;;;6.30;5.07;;;3.00;99.90;;;;;;5080013;28;20024;-59
2022/12/06 13:39:35;;;;;;;5.22;4.72;;;3.00;99.90;;;;;;5079706;28;20102;-58